Time;durP1;ratioP1;P1;durP2;ratioP2;P2;SDS_P1;SDS_P2;PMS_P1;PMS_P2;Temp;Humidity;BMP_temperature;BMP_pressure;BME280_temperature;BME280_humidity;BME280_pressure;Samples;Min_cycle;Max_cycle;Signal;HPM_P1;HPM_P2
2024/04/15 00:00:42;;;;;;;;;;;;;;;17.65;45.35;94991.44;4522147;26;20015;-60
2024/04/15 00:02:44;;;;;;;;;;;;;;;17.68;45.58;94982.28;4526772;26;20000;-59
2024/04/15 00:04:45;;;;;;;;;;;;;;;17.76;45.22;94977.66;4534087;26;20526;-59
2024/04/15 00:06:47;;;;;;;;;;;;;;;17.75;44.96;94975.22;4535327;26;19938;-61
2024/04/15 00:08:49;;;;;;;;;;;;;;;17.77;44.76;94981.13;4529072;26;19983;-61
2024/04/15 00:10:51;;;;;;;;;;;;;;;17.81;44.67;94977.09;4520434;26;20011;-59
2024/04/15 00:12:52;;;;;;;;;;;;;;;17.75;45.36;94978.66;4533700;26;20040;-58
2024/04/15 00:14:54;;;;;;;;;;;;;;;17.66;46.32;94976.38;4531727;26;20374;-59
2024/04/15 00:16:56;;;;;;;;;;;;;;;17.51;45.17;94977.34;4535157;26;20001;-60
2024/04/15 00:18:58;;;;;;;;;;;;;;;17.28;45.61;94969.63;4522004;26;20948;-60
2024/04/15 00:21:00;;;;;;;;;;;;;;;16.96;45.75;94973.69;4536928;26;20379;-59
2024/04/15 00:23:02;;;;;;;;;;;;;;;16.61;44.50;94970.94;4530158;26;19996;-59
2024/04/15 00:25:04;;;;;;;;;;;;;;;16.63;46.04;94974.19;4529183;26;20403;-59
2024/04/15 00:27:06;;;;;;;;;;;;;;;16.76;45.52;94957.63;4530274;26;19928;-58
2024/04/15 00:29:08;;;;;;;;;;;;;;;16.64;45.14;94959.16;4534627;26;19935;-60
2024/04/15 00:31:10;;;;;;;;;;;;;;;16.35;45.11;94969.66;4533975;26;20024;-59
2024/04/15 00:33:12;;;;;;;;;;;;;;;16.43;45.32;94971.34;4534887;26;20279;-58
2024/04/15 00:35:14;;;;;;;;;;;;;;;16.37;45.00;94964.19;4533761;26;19928;-62
2024/04/15 00:37:16;;;;;;;;;;;;;;;16.41;45.92;94976.00;4536162;26;19996;-60
2024/04/15 00:39:18;;;;;;;;;;;;;;;16.53;45.45;94976.34;4525495;26;20500;-59
2024/04/15 00:41:20;;;;;;;;;;;;;;;16.64;44.78;94973.19;4521639;26;19936;-59
2024/04/15 00:43:21;;;;;;;;;;;;;;;16.77;45.22;94970.66;4526375;26;19995;-60
2024/04/15 00:45:29;;;;;;;;;;;;;;;16.86;45.54;94968.72;4533217;26;19931;-59
2024/04/15 00:47:31;;;;;;;;;;;;;;;16.93;45.74;94971.44;4530539;26;20402;-61
2024/04/15 00:49:33;;;;;;;;;;;;;;;16.99;45.73;94966.19;4531282;26;19996;-58
2024/04/15 00:51:35;;;;;;;;;;;;;;;16.97;45.02;94962.91;4536952;26;19928;-60
2024/04/15 00:53:37;;;;;;;;;;;;;;;16.99;44.65;94966.19;4527913;26;20277;-59
2024/04/15 00:55:40;;;;;;;;;;;;;;;16.93;45.02;94958.22;4529689;26;19928;-59
2024/04/15 00:57:43;;;;;;;;;;;;;;;16.54;45.51;94959.44;4530637;26;20003;-59
2024/04/15 00:59:45;;;;;;;;;;;;;;;16.48;45.92;94962.88;4526930;26;19935;-60
2024/04/15 01:01:47;;;;;;;;;;;;;;;16.29;46.18;94957.19;4527002;26;19943;-60
2024/04/15 01:03:50;;;;;;;;;;;;;;;16.14;45.81;94954.59;4527851;26;19932;-60
2024/04/15 01:05:51;;;;;;;;;;;;;;;15.87;46.74;94957.94;4503276;26;20325;-59
2024/04/15 01:07:53;;;;;;;;;;;;;;;15.44;47.98;94950.66;4518427;26;20011;-60
2024/04/15 01:09:55;;;;;;;;;;;;;;;15.31;48.99;94956.56;4523147;26;19928;-60
2024/04/15 01:11:57;;;;;;;;;;;;;;;15.21;49.12;94949.94;4533654;26;19979;-60
2024/04/15 01:14:01;;;;;;;;;;;;;;;15.18;49.19;94947.66;4530928;26;19928;-59
2024/04/15 01:16:03;;;;;;;;;;;;;;;15.36;49.07;94946.31;4533317;26;20620;-58
2024/04/15 01:18:05;;;;;;;;;;;;;;;15.60;48.64;94954.13;4536929;26;20290;-60
2024/04/15 01:20:07;;;;;;;;;;;;;;;15.77;48.43;94953.78;4512733;26;19940;-58
2024/04/15 01:22:09;;;;;;;;;;;;;;;15.95;48.23;94956.00;4533311;26;19932;-61
2024/04/15 01:24:11;;;;;;;;;;;;;;;16.08;47.88;94957.97;4531491;26;19943;-61
2024/04/15 01:26:13;;;;;;;;;;;;;;;16.17;47.59;94961.31;4529292;26;19927;-58
2024/04/15 01:28:19;;;;;;;;;;;;;;;16.28;47.66;94962.66;4523428;26;19936;-59
2024/04/15 01:30:21;;;;;;;;;;;;;;;16.34;47.39;94954.78;4525263;26;19929;-58
2024/04/15 01:32:22;;;;;;;;;;;;;;;16.45;47.37;94960.59;4529560;26;19928;-60
2024/04/15 01:34:24;;;;;;;;;;;;;;;16.46;47.49;94956.94;4526279;26;19947;-59
2024/04/15 01:36:26;;;;;;;;;;;;;;;16.01;47.89;94958.94;4533098;26;19940;-59
2024/04/15 01:38:27;;;;;;;;;;;;;;;15.68;48.26;94954.84;4540650;26;19927;-58
2024/04/15 01:40:29;;;;;;;;;;;;;;;15.39;49.07;94960.16;4538487;26;20016;-59
2024/04/15 01:42:31;;;;;;;;;;;;;;;14.97;49.76;94961.56;4515707;26;20004;-59
2024/04/15 01:44:33;;;;;;;;;;;;;;;14.90;50.14;94950.91;4519222;26;19947;-59
2024/04/15 01:46:34;;;;;;;;;;;;;;;14.83;49.59;94953.44;4532716;26;20689;-57
2024/04/15 01:48:36;;;;;;;;;;;;;;;14.69;50.04;94951.59;4528788;26;19932;-58
2024/04/15 01:50:38;;;;;;;;;;;;;;;14.76;49.43;94955.16;4534014;26;20384;-60
2024/04/15 01:52:40;;;;;;;;;;;;;;;15.00;49.32;94945.38;4528896;26;19953;-58
2024/04/15 01:54:43;;;;;;;;;;;;;;;15.26;49.14;94945.75;4549310;26;20008;-59
2024/04/15 01:56:44;;;;;;;;;;;;;;;15.46;48.43;94940.75;4533079;26;19960;-57
2024/04/15 01:58:46;;;;;;;;;;;;;;;15.65;48.13;94935.91;4531622;26;19992;-60
2024/04/15 02:00:48;;;;;;;;;;;;;;;15.82;48.48;94944.47;4533309;26;19928;-61
2024/04/15 02:02:50;;;;;;;;;;;;;;;15.91;49.33;94938.06;4529839;26;19935;-59
2024/04/15 02:04:51;;;;;;;;;;;;;;;15.97;49.02;94937.34;4525500;26;19976;-60
2024/04/15 02:06:53;;;;;;;;;;;;;;;16.03;49.25;94943.72;4524292;26;20339;-62
2024/04/15 02:08:55;;;;;;;;;;;;;;;15.96;48.70;94939.16;4531657;26;19940;-60
2024/04/15 02:10:57;;;;;;;;;;;;;;;15.91;48.76;94933.59;4533603;26;19968;-60
2024/04/15 02:12:59;;;;;;;;;;;;;;;15.92;48.87;94937.09;4526645;26;19928;-59
2024/04/15 02:15:01;;;;;;;;;;;;;;;15.88;49.11;94933.97;4531820;26;19935;-59
2024/04/15 02:17:03;;;;;;;;;;;;;;;15.84;49.67;94935.34;4531073;26;19944;-58
2024/04/15 02:19:05;;;;;;;;;;;;;;;15.88;48.83;94931.34;4531406;26;19935;-60
2024/04/15 02:21:06;;;;;;;;;;;;;;;15.85;49.00;94923.81;4523120;26;19931;-59
2024/04/15 02:23:08;;;;;;;;;;;;;;;15.83;49.46;94923.16;4532757;26;19928;-59
2024/04/15 02:25:11;;;;;;;;;;;;;;;15.84;49.35;94927.44;4530876;26;20004;-58
2024/04/15 02:27:13;;;;;;;;;;;;;;;15.76;49.50;94923.06;4509414;26;19947;-59
2024/04/15 02:29:14;;;;;;;;;;;;;;;15.79;49.74;94928.97;4533830;26;20340;-60
2024/04/15 02:31:16;;;;;;;;;;;;;;;15.79;49.71;94924.53;4517615;26;20302;-59
2024/04/15 02:33:18;;;;;;;;;;;;;;;15.77;50.56;94930.00;4526144;26;20478;-60
2024/04/15 02:35:20;;;;;;;;;;;;;;;15.56;50.77;94919.34;4532729;26;19935;-59
2024/04/15 02:37:22;;;;;;;;;;;;;;;15.44;50.22;94926.09;4531625;26;19958;-60
2024/04/15 02:39:23;;;;;;;;;;;;;;;15.32;50.47;94917.84;4543415;26;19927;-59
2024/04/15 02:41:25;;;;;;;;;;;;;;;15.33;50.92;94919.44;4525980;26;19941;-60
2024/04/15 02:43:27;;;;;;;;;;;;;;;15.37;51.58;94920.72;4533405;26;19928;-60
2024/04/15 02:45:28;;;;;;;;;;;;;;;15.35;51.49;94930.66;4533146;26;19928;-59
2024/04/15 02:47:30;;;;;;;;;;;;;;;15.31;50.95;94921.44;4533476;26;19976;-60
2024/04/15 02:49:32;;;;;;;;;;;;;;;15.33;51.04;94925.53;4526673;26;19935;-59
2024/04/15 02:51:34;;;;;;;;;;;;;;;15.17;51.69;94922.28;4530525;26;20232;-60
2024/04/15 02:53:36;;;;;;;;;;;;;;;15.07;51.93;94915.44;4523994;26;19958;-60
2024/04/15 02:55:38;;;;;;;;;;;;;;;15.07;51.68;94912.81;4524724;26;19928;-59
2024/04/15 02:57:39;;;;;;;;;;;;;;;15.15;51.53;94917.19;4531411;26;19932;-59
2024/04/15 02:59:41;;;;;;;;;;;;;;;15.27;51.79;94914.91;4532773;26;19952;-61
2024/04/15 03:01:43;;;;;;;;;;;;;;;15.36;51.34;94916.47;4527647;26;19939;-59
2024/04/15 03:03:45;;;;;;;;;;;;;;;15.41;51.62;94916.72;4531897;26;19928;-57
2024/04/15 03:05:47;;;;;;;;;;;;;;;15.46;51.27;94919.63;4533118;26;19940;-60
2024/04/15 03:07:49;;;;;;;;;;;;;;;15.51;50.80;94911.19;4547730;26;19940;-58
2024/04/15 03:09:53;;;;;;;;;;;;;;;15.44;50.95;94903.16;4532363;26;20636;-60
2024/04/15 03:11:55;;;;;;;;;;;;;;;15.48;51.36;94903.59;4516364;26;20292;-60
2024/04/15 03:13:57;;;;;;;;;;;;;;;15.48;51.16;94908.88;4528221;26;19935;-59
2024/04/15 03:15:59;;;;;;;;;;;;;;;15.46;50.95;94911.69;4528736;26;19928;-62
2024/04/15 03:18:16;;;;;;;;;;;;;;;15.49;50.76;94908.72;4523658;26;19928;-59
2024/04/15 03:20:18;;;;;;;;;;;;;;;15.51;51.21;94914.63;4518726;26;19948;-59
2024/04/15 03:22:20;;;;;;;;;;;;;;;15.48;51.23;94909.69;4534019;26;19951;-57
2024/04/15 03:24:23;;;;;;;;;;;;;;;15.46;51.86;94909.06;4535874;26;19928;-59
2024/04/15 03:26:25;;;;;;;;;;;;;;;15.35;51.65;94912.97;4535865;26;19935;-59
2024/04/15 03:28:27;;;;;;;;;;;;;;;15.24;51.70;94915.28;4558362;26;19935;-61
2024/04/15 03:30:28;;;;;;;;;;;;;;;15.18;52.16;94916.81;4515088;26;20399;-60
2024/04/15 03:32:30;;;;;;;;;;;;;;;15.09;52.19;94913.44;4525544;26;19988;-58
2024/04/15 03:34:32;;;;;;;;;;;;;;;15.04;52.47;94909.72;4536669;26;19939;-57
2024/04/15 03:36:34;;;;;;;;;;;;;;;14.86;52.66;94903.00;4519068;26;20039;-60
2024/04/15 03:38:36;;;;;;;;;;;;;;;14.80;53.39;94902.88;4515657;26;19936;-61
2024/04/15 03:40:38;;;;;;;;;;;;;;;14.87;53.43;94909.06;4548588;26;19935;-58
2024/04/15 03:42:40;;;;;;;;;;;;;;;14.90;53.55;94908.72;4553101;26;19940;-59
2024/04/15 03:44:43;;;;;;;;;;;;;;;14.87;52.98;94909.06;4532889;26;19985;-58
2024/04/15 03:46:45;;;;;;;;;;;;;;;14.91;52.92;94915.63;4515102;26;20281;-58
2024/04/15 03:48:46;;;;;;;;;;;;;;;14.77;53.22;94916.41;4510904;26;20344;-59
2024/04/15 03:50:48;;;;;;;;;;;;;;;14.22;54.59;94919.16;4534030;26;20375;-60
2024/04/15 03:52:50;;;;;;;;;;;;;;;13.99;55.80;94915.69;4512005;26;19965;-59
2024/04/15 03:54:52;;;;;;;;;;;;;;;14.00;56.21;94915.50;4532565;26;20072;-59
2024/04/15 03:56:54;;;;;;;;;;;;;;;14.17;55.43;94910.94;4533632;26;19928;-59
2024/04/15 03:58:55;;;;;;;;;;;;;;;14.24;55.32;94914.53;4532029;26;20687;-59
2024/04/15 04:01:00;;;;;;;;;;;;;;;14.46;54.56;94917.34;4514639;26;19994;-60
2024/04/15 04:03:02;;;;;;;;;;;;;;;14.62;54.08;94914.56;4530976;26;19976;-60
2024/04/15 04:05:05;;;;;;;;;;;;;;;14.79;53.48;94914.44;4524311;26;19929;-60
2024/04/15 04:07:07;;;;;;;;;;;;;;;14.89;53.20;94907.09;4526371;26;19995;-60
2024/04/15 04:09:09;;;;;;;;;;;;;;;15.01;52.90;94918.00;4530278;26;19975;-61
2024/04/15 04:11:10;;;;;;;;;;;;;;;15.11;52.71;94922.00;4537616;26;20001;-61
2024/04/15 04:13:12;;;;;;;;;;;;;;;15.21;52.56;94915.63;4534865;26;19996;-59
2024/04/15 04:15:14;;;;;;;;;;;;;;;15.30;52.96;94920.66;4533505;26;19939;-62
2024/04/15 04:17:16;;;;;;;;;;;;;;;15.39;52.84;94924.00;4529951;26;19956;-60
2024/04/15 04:19:21;;;;;;;;;;;;;;;15.48;52.68;94911.53;4525656;26;19936;-60
2024/04/15 04:21:23;;;;;;;;;;;;;;;15.52;52.34;94924.16;4522864;26;20278;-59
2024/04/15 04:23:25;;;;;;;;;;;;;;;15.61;52.33;94926.72;4534626;26;19936;-62
2024/04/15 04:25:27;;;;;;;;;;;;;;;15.66;52.31;94926.97;4533562;26;19993;-59
2024/04/15 04:27:29;;;;;;;;;;;;;;;15.63;53.14;94914.16;4528936;26;19940;-60
2024/04/15 04:29:34;;;;;;;;;;;;;;;15.62;53.29;94923.09;4534970;26;20062;-61
2024/04/15 04:31:38;;;;;;;;;;;;;;;15.65;52.77;94934.06;4531852;26;19967;-58
2024/04/15 04:33:40;;;;;;;;;;;;;;;15.67;53.02;94920.69;4534514;26;19948;-60
2024/04/15 04:35:43;;;;;;;;;;;;;;;15.68;52.86;94925.81;4535171;26;19939;-61
2024/04/15 04:37:45;;;;;;;;;;;;;;;15.68;52.48;94928.44;4517275;26;19997;-60
2024/04/15 04:39:50;;;;;;;;;;;;;;;15.76;52.39;94920.41;4529953;26;19938;-60
2024/04/15 04:41:51;;;;;;;;;;;;;;;15.85;52.65;94929.09;4518137;26;19935;-61
2024/04/15 04:43:53;;;;;;;;;;;;;;;15.90;52.29;94926.69;4530463;26;20251;-58
2024/04/15 04:45:55;;;;;;;;;;;;;;;16.00;52.61;94925.56;4557341;25;20047;-62
2024/04/15 04:47:57;;;;;;;;;;;;;;;16.01;52.62;94922.75;4531697;26;20520;-63
2024/04/15 04:49:59;;;;;;;;;;;;;;;16.10;52.23;94918.97;4526289;26;19957;-56
2024/04/15 04:52:00;;;;;;;;;;;;;;;16.14;52.13;94927.34;4518873;26;19928;-62
2024/04/15 04:54:02;;;;;;;;;;;;;;;16.00;51.57;94928.22;4532253;26;20165;-59
2024/04/15 04:56:10;;;;;;;;;;;;;;;16.01;52.15;94919.28;4531341;26;19935;-60
2024/04/15 04:58:13;;;;;;;;;;;;;;;16.09;52.48;94924.44;4521472;26;19994;-61
2024/04/15 05:00:15;;;;;;;;;;;;;;;16.15;51.88;94924.53;4524423;26;19932;-60
2024/04/15 05:02:16;;;;;;;;;;;;;;;16.07;51.74;94926.47;4531370;26;19936;-61
2024/04/15 05:04:18;;;;;;;;;;;;;;;16.10;51.83;94926.09;4523135;26;19927;-61
2024/04/15 05:06:20;;;;;;;;;;;;;;;16.12;52.10;94926.72;4530623;26;20397;-61
2024/04/15 05:08:23;;;;;;;;;;;;;;;16.10;52.08;94920.81;4519715;26;19939;-59
2024/04/15 05:10:25;;;;;;;;;;;;;;;16.06;52.53;94917.72;4535005;26;19957;-60
2024/04/15 05:12:27;;;;;;;;;;;;;;;16.16;52.26;94909.47;4531853;26;19928;-59
2024/04/15 05:14:28;;;;;;;;;;;;;;;16.18;51.21;94916.22;4510425;26;20331;-62
2024/04/15 05:16:30;;;;;;;;;;;;;;;16.14;51.59;94916.78;4521830;26;19987;-58
2024/04/15 05:18:32;;;;;;;;;;;;;;;16.27;51.60;94911.63;4515540;26;19993;-60
2024/04/15 05:20:37;;;;;;;;;;;;;;;16.32;51.57;94903.94;4532767;26;19945;-60
2024/04/15 05:22:39;;;;;;;;;;;;;;;16.32;51.50;94905.75;4522046;26;19957;-60
2024/04/15 05:24:41;;;;;;;;;;;;;;;16.43;51.33;94907.06;4540253;26;20444;-60
2024/04/15 05:26:42;;;;;;;;;;;;;;;16.53;51.82;94910.22;4530588;26;19957;-59
2024/04/15 05:28:44;;;;;;;;;;;;;;;16.48;51.39;94908.16;4530839;26;20008;-59
2024/04/15 05:30:46;;;;;;;;;;;;;;;16.27;51.65;94911.63;4519964;26;20262;-60
2024/04/15 05:32:48;;;;;;;;;;;;;;;16.42;52.08;94905.47;4516958;26;19936;-63
2024/04/15 05:34:50;;;;;;;;;;;;;;;16.58;51.68;94907.81;4531578;26;19935;-62
2024/04/15 05:36:52;;;;;;;;;;;;;;;16.76;51.10;94908.19;4511233;26;20351;-60
2024/04/15 05:38:53;;;;;;;;;;;;;;;16.93;51.45;94908.75;4526275;26;19928;-64
2024/04/15 05:40:55;;;;;;;;;;;;;;;17.10;50.25;94906.63;4518812;26;19961;-61
2024/04/15 05:42:57;;;;;;;;;;;;;;;17.14;50.13;94905.22;4520747;26;19929;-59
2024/04/15 05:44:59;;;;;;;;;;;;;;;17.14;50.45;94897.28;4516843;26;19948;-61
2024/04/15 05:47:01;;;;;;;;;;;;;;;17.17;49.75;94896.88;4527664;26;20352;-60
2024/04/15 05:49:03;;;;;;;;;;;;;;;17.12;49.94;94915.19;4532504;26;19944;-61
2024/04/15 05:51:04;;;;;;;;;;;;;;;17.16;50.29;94900.53;4531648;26;20138;-60
2024/04/15 05:53:06;;;;;;;;;;;;;;;17.28;49.69;94898.16;4529784;26;19928;-60
2024/04/15 05:55:08;;;;;;;;;;;;;;;17.43;49.18;94892.72;4535669;26;20339;-61
2024/04/15 05:57:10;;;;;;;;;;;;;;;17.52;49.22;94893.38;4537275;26;19936;-59
2024/04/15 05:59:12;;;;;;;;;;;;;;;17.68;49.14;94887.75;4528778;26;19928;-61
2024/04/15 06:01:13;;;;;;;;;;;;;;;17.89;48.37;94886.00;4523024;26;20004;-61
2024/04/15 06:03:15;;;;;;;;;;;;;;;18.02;47.53;94893.97;4531548;26;20020;-61
2024/04/15 06:05:19;;;;;;;;;;;;;;;18.09;46.35;94894.00;4520664;26;19934;-60
2024/04/15 06:07:21;;;;;;;;;;;;;;;18.09;46.79;94894.84;4527289;26;20275;-65
2024/04/15 06:09:23;;;;;;;;;;;;;;;18.20;46.23;94888.94;4529063;26;20547;-61
2024/04/15 06:11:25;;;;;;;;;;;;;;;18.35;45.93;94878.16;4527836;26;20000;-59
2024/04/15 06:13:27;;;;;;;;;;;;;;;18.33;45.26;94876.72;4531874;26;20398;-62
2024/04/15 06:15:36;;;;;;;;;;;;;;;18.33;45.27;94871.41;4533900;26;20368;-60
2024/04/15 06:17:38;;;;;;;;;;;;;;;18.36;45.50;94874.47;4514325;26;19968;-60
2024/04/15 06:19:40;;;;;;;;;;;;;;;18.46;45.79;94879.38;4532170;26;19928;-59
2024/04/15 06:21:42;;;;;;;;;;;;;;;18.54;45.37;94876.53;4531029;26;19935;-59
2024/04/15 06:23:44;;;;;;;;;;;;;;;18.47;45.79;94880.19;4530697;26;20367;-58
2024/04/15 06:25:50;;;;;;;;;;;;;;;18.16;45.98;94874.44;4532469;26;19932;-60
2024/04/15 06:27:52;;;;;;;;;;;;;;;18.32;46.44;94873.22;4517065;26;19928;-60
2024/04/15 06:29:53;;;;;;;;;;;;;;;18.50;46.17;94872.66;4530174;26;19937;-60
2024/04/15 06:31:55;;;;;;;;;;;;;;;18.65;45.29;94876.91;4528721;26;19939;-58
2024/04/15 06:34:00;;;;;;;;;;;;;;;18.70;45.71;94867.31;4531590;26;20299;-59
2024/04/15 06:36:02;;;;;;;;;;;;;;;18.56;45.57;94863.88;4532604;26;19939;-60
2024/04/15 06:38:04;;;;;;;;;;;;;;;18.37;45.60;94875.31;4517661;26;19936;-59
2024/04/15 06:40:06;;;;;;;;;;;;;;;18.18;45.95;94868.94;4523695;26;19936;-59
2024/04/15 06:42:08;;;;;;;;;;;;;;;18.17;46.16;94859.34;4529620;26;19935;-62
2024/04/15 06:44:11;;;;;;;;;;;;;;;17.87;45.76;94864.19;4529785;26;20489;-60
2024/04/15 06:46:12;;;;;;;;;;;;;;;17.35;46.23;94861.94;4527934;26;20039;-60
2024/04/15 06:48:16;;;;;;;;;;;;;;;17.21;46.22;94857.59;4528464;26;20014;-61
2024/04/15 06:50:18;;;;;;;;;;;;;;;17.19;45.54;94862.28;4520650;26;19928;-59
2024/04/15 06:52:19;;;;;;;;;;;;;;;17.35;45.46;94858.47;4527256;26;19992;-61
2024/04/15 06:54:25;;;;;;;;;;;;;;;17.52;45.26;94857.09;4512767;26;19928;-58
2024/04/15 06:56:27;;;;;;;;;;;;;;;17.83;44.44;94850.50;4529111;26;19928;-59
2024/04/15 06:58:29;;;;;;;;;;;;;;;18.00;43.79;94849.13;4528471;26;20062;-61
2024/04/15 07:00:30;;;;;;;;;;;;;;;18.16;44.17;94847.13;4530117;26;19943;-59
2024/04/15 07:02:32;;;;;;;;;;;;;;;18.29;44.06;94847.13;4526240;26;19936;-60
2024/04/15 07:04:34;;;;;;;;;;;;;;;18.30;43.60;94840.78;4534465;26;20277;-62
2024/04/15 07:06:36;;;;;;;;;;;;;;;18.17;43.23;94843.44;4534645;26;20001;-61
2024/04/15 07:08:38;;;;;;;;;;;;;;;18.25;43.58;94845.09;4529892;26;19928;-61
2024/04/15 07:10:40;;;;;;;;;;;;;;;18.50;43.42;94845.28;4522288;26;19960;-60
2024/04/15 07:12:42;;;;;;;;;;;;;;;18.77;42.81;94838.94;4520688;26;19993;-60
2024/04/15 07:14:44;;;;;;;;;;;;;;;18.88;42.42;94831.41;4536079;26;19936;-62
2024/04/15 07:16:46;;;;;;;;;;;;;;;18.60;43.03;94840.38;4526441;26;20542;-60
2024/04/15 07:18:48;;;;;;;;;;;;;;;18.55;43.34;94835.69;4518097;26;19928;-58
2024/04/15 07:20:50;;;;;;;;;;;;;;;18.62;43.30;94835.69;4514157;26;19952;-60
2024/04/15 07:22:52;;;;;;;;;;;;;;;18.82;42.92;94831.22;4526834;26;19932;-59
2024/04/15 07:24:53;;;;;;;;;;;;;;;19.16;42.84;94825.81;4533657;26;20035;-61
2024/04/15 07:26:56;;;;;;;;;;;;;;;19.46;42.51;94828.78;4533644;26;20077;-62
2024/04/15 07:28:57;;;;;;;;;;;;;;;19.31;41.87;94820.25;4511075;26;19947;-60
2024/04/15 07:31:00;;;;;;;;;;;;;;;19.46;42.20;94830.63;4532280;26;19935;-62
2024/04/15 07:33:03;;;;;;;;;;;;;;;19.76;42.25;94826.41;4531298;26;19928;-60
2024/04/15 07:35:05;;;;;;;;;;;;;;;19.83;41.26;94826.38;4531469;26;20378;-61
2024/04/15 07:37:08;;;;;;;;;;;;;;;19.69;41.64;94822.13;4527675;26;20358;-60
2024/04/15 07:39:11;;;;;;;;;;;;;;;19.82;41.67;94814.94;4534618;26;20381;-62
2024/04/15 07:41:12;;;;;;;;;;;;;;;19.83;41.24;94813.91;4524440;26;19968;-59
2024/04/15 07:43:14;;;;;;;;;;;;;;;20.03;41.35;94811.13;4523857;26;19935;-59
2024/04/15 07:45:16;;;;;;;;;;;;;;;20.26;40.48;94807.06;4535298;26;20091;-59
2024/04/15 07:47:19;;;;;;;;;;;;;;;20.43;39.79;94807.34;4527928;26;20331;-59
2024/04/15 07:49:21;;;;;;;;;;;;;;;20.52;39.86;94813.19;4518044;26;20576;-60
2024/04/15 07:51:23;;;;;;;;;;;;;;;20.48;39.87;94804.84;4521538;26;19952;-60
2024/04/15 07:53:28;;;;;;;;;;;;;;;20.39;40.21;94804.31;4525367;26;19953;-62
2024/04/15 07:55:30;;;;;;;;;;;;;;;19.96;40.50;94809.53;4534651;26;19935;-60
2024/04/15 07:57:31;;;;;;;;;;;;;;;20.00;40.61;94795.63;4530565;26;19927;-61
2024/04/15 07:59:33;;;;;;;;;;;;;;;19.98;41.01;94802.16;4534679;26;19928;-61
2024/04/15 08:01:35;;;;;;;;;;;;;;;19.99;41.01;94791.31;4516783;26;19928;-62
2024/04/15 08:03:37;;;;;;;;;;;;;;;20.06;41.52;94799.22;4531664;26;19952;-61
2024/04/15 08:05:39;;;;;;;;;;;;;;;20.38;40.65;94788.56;4528471;26;19968;-60
2024/04/15 08:07:41;;;;;;;;;;;;;;;20.71;40.53;94790.94;4539990;26;20286;-61
2024/04/15 08:09:43;;;;;;;;;;;;;;;21.06;39.97;94782.41;4521943;26;19935;-62
2024/04/15 08:11:45;;;;;;;;;;;;;;;21.38;39.53;94787.56;4527288;26;19995;-60
2024/04/15 08:13:47;;;;;;;;;;;;;;;21.66;39.25;94785.19;4534093;26;19995;-61
2024/04/15 08:15:50;;;;;;;;;;;;;;;21.76;37.89;94781.16;4518575;26;19974;-59
2024/04/15 08:17:52;;;;;;;;;;;;;;;21.06;38.71;94782.41;4516252;26;20223;-60
2024/04/15 08:19:54;;;;;;;;;;;;;;;21.18;38.73;94777.13;4531534;26;20365;-57
2024/04/15 08:21:56;;;;;;;;;;;;;;;21.23;38.77;94769.28;4528826;26;19928;-59
2024/04/15 08:23:58;;;;;;;;;;;;;;;21.55;39.69;94774.44;4515930;26;20071;-61
2024/04/15 08:25:59;;;;;;;;;;;;;;;21.81;38.71;94770.59;4525215;26;19935;-60
2024/04/15 08:28:01;;;;;;;;;;;;;;;21.89;38.10;94765.75;4526804;26;19935;-63
2024/04/15 08:30:03;;;;;;;;;;;;;;;21.94;38.78;94761.59;4534076;26;20410;-60
2024/04/15 08:32:05;;;;;;;;;;;;;;;22.17;38.20;94758.97;4530409;26;20068;-60
2024/04/15 08:34:07;;;;;;;;;;;;;;;22.31;37.26;94754.28;4518316;26;19928;-61
2024/04/15 08:36:09;;;;;;;;;;;;;;;22.47;36.79;94750.91;4531147;26;20183;-60
2024/04/15 08:38:11;;;;;;;;;;;;;;;22.54;36.88;94740.13;4527400;26;19940;-59
2024/04/15 08:40:13;;;;;;;;;;;;;;;22.44;36.85;94740.72;4512559;26;19936;-61
2024/04/15 08:42:21;;;;;;;;;;;;;;;22.45;37.09;94745.00;4529026;26;19936;-60
2024/04/15 08:44:24;;;;;;;;;;;;;;;22.39;37.46;94737.94;4533791;26;19988;-61
2024/04/15 08:46:25;;;;;;;;;;;;;;;22.40;36.81;94739.56;4525433;26;20056;-62
2024/04/15 08:48:27;;;;;;;;;;;;;;;22.28;37.08;94734.22;4524156;26;19932;-60
2024/04/15 08:50:29;;;;;;;;;;;;;;;21.94;37.20;94734.94;4524911;26;19952;-61
2024/04/15 08:52:31;;;;;;;;;;;;;;;21.86;37.76;94728.09;4520552;26;19940;-61
2024/04/15 08:54:33;;;;;;;;;;;;;;;21.74;38.09;94729.91;4525639;26;19996;-62
2024/04/15 08:56:37;;;;;;;;;;;;;;;21.79;37.93;94724.69;4529996;26;19929;-64
2024/04/15 08:58:39;;;;;;;;;;;;;;;21.94;37.48;94721.59;4533434;26;20289;-62
2024/04/15 09:00:41;;;;;;;;;;;;;;;21.84;37.49;94720.31;4531386;26;19928;-62
2024/04/15 09:02:42;;;;;;;;;;;;;;;22.03;37.65;94718.38;4525829;26;19939;-64
2024/04/15 09:04:44;;;;;;;;;;;;;;;22.12;37.16;94716.19;4535281;26;19928;-60
2024/04/15 09:06:46;;;;;;;;;;;;;;;22.43;37.32;94720.41;4522244;26;19929;-63
2024/04/15 09:08:48;;;;;;;;;;;;;;;22.76;36.63;94713.66;4525034;26;19985;-61
2024/04/15 09:10:50;;;;;;;;;;;;;;;22.69;36.57;94713.78;4534271;26;19977;-63
2024/04/15 09:12:52;;;;;;;;;;;;;;;22.77;36.02;94701.91;4513394;26;19934;-60
2024/04/15 09:14:54;;;;;;;;;;;;;;;22.95;36.02;94700.13;4520622;26;19939;-62
2024/04/15 09:16:56;;;;;;;;;;;;;;;23.02;35.79;94703.53;4527982;26;20087;-61
2024/04/15 09:18:58;;;;;;;;;;;;;;;23.07;35.59;94693.75;4521223;26;19963;-61
2024/04/15 09:21:00;;;;;;;;;;;;;;;23.41;35.72;94698.41;4519521;26;19997;-61
2024/04/15 09:23:10;;;;;;;;;;;;;;;23.80;35.43;94695.91;4529128;26;19988;-61
2024/04/15 09:25:13;;;;;;;;;;;;;;;24.14;35.19;94698.63;4529174;26;19931;-62
2024/04/15 09:27:15;;;;;;;;;;;;;;;24.25;33.59;94682.44;4526887;26;19940;-62
2024/04/15 09:29:17;;;;;;;;;;;;;;;24.28;33.48;94679.28;4520027;26;19928;-61
2024/04/15 09:31:19;;;;;;;;;;;;;;;24.35;33.28;94679.13;4531955;26;19944;-58
2024/04/15 09:33:22;;;;;;;;;;;;;;;24.35;33.63;94671.09;4529114;26;20039;-60
2024/04/15 09:35:26;;;;;;;;;;;;;;;24.46;33.24;94661.34;4532033;26;19960;-60
2024/04/15 09:37:31;;;;;;;;;;;;;;;24.43;33.77;94667.97;4506062;26;19928;-60
2024/04/15 09:39:34;;;;;;;;;;;;;;;24.64;33.81;94655.72;4515410;26;19939;-59
2024/04/15 09:41:36;;;;;;;;;;;;;;;24.78;33.57;94652.66;4523274;26;20384;-60
2024/04/15 09:43:37;;;;;;;;;;;;;;;24.84;33.33;94649.00;4527472;26;20387;-60
2024/04/15 09:45:39;;;;;;;;;;;;;;;25.01;33.15;94643.56;4524035;26;20012;-61
2024/04/15 09:47:41;;;;;;;;;;;;;;;25.14;33.15;94649.38;4530868;26;19928;-62
2024/04/15 09:49:43;;;;;;;;;;;;;;;25.20;32.55;94642.22;4523199;26;19944;-59
2024/04/15 09:51:45;;;;;;;;;;;;;;;24.94;32.51;94643.75;4501799;26;20006;-61
2024/04/15 09:53:50;;;;;;;;;;;;;;;25.03;32.70;94641.47;4545589;26;19996;-60
2024/04/15 09:55:52;;;;;;;;;;;;;;;25.22;32.36;94640.09;4528998;26;19959;-60
2024/04/15 09:57:54;;;;;;;;;;;;;;;25.41;31.63;94629.81;4518032;26;20272;-61
2024/04/15 09:59:56;;;;;;;;;;;;;;;25.51;31.64;94629.94;4524616;26;19928;-61
2024/04/15 10:01:59;;;;;;;;;;;;;;;25.78;31.78;94628.28;4527121;26;20409;-61
2024/04/15 10:04:05;;;;;;;;;;;;;;;25.51;31.96;94624.56;4532807;26;20214;-62
2024/04/15 10:06:07;;;;;;;;;;;;;;;25.30;31.87;94612.03;4509443;26;19936;-61
2024/04/15 10:08:09;;;;;;;;;;;;;;;25.21;32.25;94619.72;4524909;26;19928;-63
2024/04/15 10:10:10;;;;;;;;;;;;;;;25.40;32.30;94620.16;4530472;26;20247;-61
2024/04/15 10:12:12;;;;;;;;;;;;;;;25.56;31.56;94602.34;4500443;26;19933;-61
2024/04/15 10:14:14;;;;;;;;;;;;;;;25.77;32.05;94595.28;4517374;26;20415;-61
2024/04/15 10:16:19;;;;;;;;;;;;;;;25.85;31.25;94593.97;4532484;26;20011;-60
2024/04/15 10:18:43;;;;;;;;;;;;;;;26.15;31.10;94588.03;4517132;26;19931;-61
2024/04/15 10:20:48;;;;;;;;;;;;;;;26.36;30.59;94588.97;4521714;26;19928;-59
2024/04/15 10:22:55;;;;;;;;;;;;;;;26.43;30.03;94586.84;4521369;26;20013;-61
2024/04/15 10:25:01;;;;;;;;;;;;;;;26.43;29.63;94586.84;4527019;26;20055;-62
2024/04/15 10:27:03;;;;;;;;;;;;;;;26.34;29.72;94586.53;4533097;26;19942;-59
2024/04/15 10:29:12;;;;;;;;;;;;;;;26.43;29.34;94578.78;4527573;26;19932;-59
2024/04/15 10:31:13;;;;;;;;;;;;;;;26.44;29.91;94577.75;4520936;26;19940;-61
2024/04/15 10:33:15;;;;;;;;;;;;;;;26.55;29.36;94571.34;4529517;26;19928;-60
2024/04/15 10:35:21;;;;;;;;;;;;;;;26.67;28.94;94564.97;4532152;26;19935;-60
2024/04/15 10:37:27;;;;;;;;;;;;;;;26.77;28.97;94562.31;4533352;26;19967;-60